Time;durP1;ratioP1;P1;durP2;ratioP2;P2;SDS_P1;SDS_P2;PMS_P1;PMS_P2;Temp;Humidity;BMP_temperature;BMP_pressure;BME280_temperature;BME280_humidity;BME280_pressure;Samples;Min_cycle;Max_cycle;Signal;HPM_P1;HPM_P2
2021/10/24 00:00:47;;;;;;;3.90;0.97;;;5.10;99.90;;;;;;5072001;28;20025;-81
2021/10/24 00:03:13;;;;;;;2.30;1.10;;;5.10;99.90;;;;;;5075695;28;20031;-81
2021/10/24 00:05:39;;;;;;;3.33;1.20;;;5.10;99.90;;;;;;5058474;28;20397;-81
2021/10/24 00:08:04;;;;;;;4.17;1.30;;;5.10;99.90;;;;;;5061122;28;20033;-82
2021/10/24 00:10:30;;;;;;;3.07;1.10;;;5.00;99.90;;;;;;5060234;28;20029;-81
2021/10/24 00:12:56;;;;;;;2.23;0.87;;;5.00;99.90;;;;;;5075692;28;20156;-82
2021/10/24 00:15:22;;;;;;;3.03;1.07;;;5.00;99.90;;;;;;5062178;28;20413;-81
2021/10/24 00:17:47;;;;;;;4.03;1.33;;;5.00;99.90;;;;;;5062006;28;20048;-81
2021/10/24 00:20:13;;;;;;;3.17;1.00;;;5.00;99.90;;;;;;5060697;28;20119;-81
2021/10/24 00:22:39;;;;;;;3.57;1.00;;;5.00;99.90;;;;;;5063706;28;20069;-82
2021/10/24 00:25:06;;;;;;;3.07;1.00;;;5.00;99.90;;;;;;5081848;28;20032;-81
2021/10/24 00:27:31;;;;;;;3.77;1.30;;;5.00;99.90;;;;;;5075589;28;20029;-81
2021/10/24 00:29:57;;;;;;;5.20;1.47;;;5.00;99.90;;;;;;5060269;28;20338;-81
2021/10/24 00:32:23;;;;;;;4.57;1.07;;;5.00;99.90;;;;;;5064496;28;20044;-81
2021/10/24 00:34:48;;;;;;;6.07;1.50;;;4.90;99.90;;;;;;5079870;28;20029;-81
2021/10/24 00:37:14;;;;;;;3.70;1.10;;;4.90;99.90;;;;;;5072402;23;20031;-80
2021/10/24 00:39:39;;;;;;;3.00;1.13;;;4.90;99.90;;;;;;5051278;28;20041;-81
2021/10/24 00:42:05;;;;;;;2.30;1.00;;;4.90;99.90;;;;;;5055371;28;20531;-81
2021/10/24 00:44:32;;;;;;;2.97;1.17;;;4.90;99.90;;;;;;5055581;28;20033;-81
2021/10/24 00:47:00;;;;;;;3.57;1.07;;;4.90;99.90;;;;;;5055796;28;20107;-81
2021/10/24 00:49:26;;;;;;;3.33;0.97;;;4.90;99.90;;;;;;5055318;28;20025;-81
2021/10/24 00:51:54;;;;;;;2.33;1.00;;;4.90;99.90;;;;;;5053164;28;20035;-81
2021/10/24 00:54:22;;;;;;;1.93;0.80;;;4.90;99.90;;;;;;5036033;28;20108;-81
2021/10/24 00:56:49;;;;;;;2.03;0.97;;;4.80;99.90;;;;;;5046932;28;20524;-81
2021/10/24 00:59:16;;;;;;;4.57;1.30;;;4.80;99.90;;;;;;5054945;28;20192;-80
2021/10/24 01:01:42;;;;;;;2.30;1.07;;;4.80;99.90;;;;;;5055991;28;20116;-81
2021/10/24 01:04:08;;;;;;;2.67;1.10;;;4.80;99.90;;;;;;5052447;28;20112;-81
2021/10/24 01:06:36;;;;;;;2.97;0.77;;;4.80;99.90;;;;;;5034919;28;20053;-81
2021/10/24 01:09:04;;;;;;;3.87;0.97;;;4.80;99.90;;;;;;5035089;28;20030;-81
2021/10/24 01:11:30;;;;;;;6.13;1.17;;;4.80;99.90;;;;;;5036815;28;20026;-81
2021/10/24 01:13:56;;;;;;;1.90;0.90;;;4.80;99.90;;;;;;5036946;28;20026;-81
2021/10/24 01:16:22;;;;;;;2.90;1.10;;;4.80;99.90;;;;;;5035211;28;20034;-81
2021/10/24 01:18:48;;;;;;;3.27;1.23;;;4.80;99.90;;;;;;5035709;28;20133;-80
2021/10/24 01:21:14;;;;;;;3.93;1.37;;;4.80;99.90;;;;;;5034903;28;20065;-81
2021/10/24 01:23:40;;;;;;;5.67;0.90;;;4.80;99.90;;;;;;5045760;28;20037;-81
2021/10/24 01:26:06;;;;;;;1.83;0.83;;;4.70;99.90;;;;;;5054961;28;20723;-81
2021/10/24 01:28:33;;;;;;;5.07;1.20;;;4.70;99.90;;;;;;5053269;28;20033;-81
2021/10/24 01:30:59;;;;;;;3.93;1.30;;;4.70;99.90;;;;;;5038042;28;20021;-81
2021/10/24 01:33:25;;;;;;;3.30;1.20;;;4.70;99.90;;;;;;5055574;28;20030;-81
2021/10/24 01:35:52;;;;;;;2.73;0.97;;;4.70;99.90;;;;;;5040222;28;20040;-81
2021/10/24 01:38:18;;;;;;;4.07;1.07;;;4.70;99.90;;;;;;5038922;28;20033;-81
2021/10/24 01:40:44;;;;;;;7.03;1.10;;;4.70;99.90;;;;;;5038635;28;20044;-81
2021/10/24 01:43:09;;;;;;;1.93;0.80;;;4.70;99.90;;;;;;5040351;28;20032;-81
2021/10/24 01:45:35;;;;;;;2.03;0.67;;;4.70;99.90;;;;;;5055646;28;20025;-80
2021/10/24 01:48:01;;;;;;;2.30;1.00;;;4.70;99.90;;;;;;5055453;28;20029;-81
2021/10/24 01:50:26;;;;;;;2.83;1.07;;;4.70;99.90;;;;;;5039532;28;20037;-81
2021/10/24 01:52:52;;;;;;;4.73;1.23;;;4.70;99.90;;;;;;5038887;28;20029;-81
2021/10/24 01:55:19;;;;;;;2.57;0.97;;;4.60;99.90;;;;;;5038750;28;20163;-80
2021/10/24 01:57:47;;;;;;;3.40;1.10;;;4.60;99.90;;;;;;5036289;28;20029;-80
2021/10/24 02:00:15;;;;;;;2.50;1.00;;;4.60;99.90;;;;;;5035984;28;20482;-80
2021/10/24 02:02:40;;;;;;;4.80;1.30;;;4.60;99.90;;;;;;5038443;28;20112;-81
2021/10/24 02:05:07;;;;;;;3.30;1.03;;;4.60;99.90;;;;;;5037944;28;20048;-80
2021/10/24 02:07:32;;;;;;;4.17;1.30;;;4.50;99.90;;;;;;5037380;28;20107;-81
2021/10/24 02:09:58;;;;;;;2.97;1.23;;;4.50;99.90;;;;;;5037218;28;20033;-81
2021/10/24 02:12:23;;;;;;;3.13;1.33;;;4.50;99.90;;;;;;5036855;28;20446;-80
2021/10/24 02:14:50;;;;;;;4.77;1.33;;;4.50;99.90;;;;;;5036795;28;20490;-81
2021/10/24 02:17:16;;;;;;;3.27;1.20;;;4.50;99.90;;;;;;5038338;28;20029;-81
2021/10/24 02:19:41;;;;;;;3.27;1.37;;;4.50;99.90;;;;;;5037161;28;20021;-81
2021/10/24 02:22:08;;;;;;;4.30;1.20;;;4.50;99.90;;;;;;5038017;28;20040;-82
2021/10/24 02:24:33;;;;;;;3.07;1.37;;;4.40;99.90;;;;;;5051134;28;20496;-81
2021/10/24 02:26:59;;;;;;;7.13;1.10;;;4.40;99.90;;;;;;5036988;28;20033;-82
2021/10/24 02:29:25;;;;;;;4.20;1.37;;;4.40;99.90;;;;;;5035814;28;20026;-78
2021/10/24 02:31:50;;;;;;;3.63;1.10;;;4.40;99.90;;;;;;5062924;28;20025;-80
2021/10/24 02:34:16;;;;;;;3.10;1.27;;;4.30;99.90;;;;;;5063307;28;20547;-80
2021/10/24 02:36:41;;;;;;;3.47;1.03;;;4.30;99.90;;;;;;5063710;28;20018;-80
2021/10/24 02:39:07;;;;;;;2.97;1.20;;;4.30;99.90;;;;;;5046613;28;20048;-79
2021/10/24 02:41:33;;;;;;;4.33;1.70;;;4.30;99.90;;;;;;5042595;28;20033;-81
2021/10/24 02:43:58;;;;;;;2.77;1.30;;;4.30;99.90;;;;;;5044212;28;20113;-81
2021/10/24 02:46:24;;;;;;;3.87;1.40;;;4.30;99.90;;;;;;5044519;28;20041;-81
2021/10/24 02:48:50;;;;;;;2.63;1.00;;;4.20;99.90;;;;;;5044424;28;20108;-80
2021/10/24 02:51:15;;;;;;;3.10;1.03;;;4.20;99.90;;;;;;5059128;28;20025;-80
2021/10/24 02:53:41;;;;;;;4.23;1.37;;;4.20;99.90;;;;;;5059737;28;20035;-81
2021/10/24 02:56:06;;;;;;;4.37;1.30;;;4.20;99.90;;;;;;5044363;28;20040;-81
2021/10/24 02:58:32;;;;;;;3.57;1.33;;;4.20;99.90;;;;;;5045737;28;20032;-81
2021/10/24 03:00:58;;;;;;;4.47;1.40;;;4.20;99.90;;;;;;5043594;28;20033;-81
2021/10/24 03:03:23;;;;;;;4.63;1.30;;;4.20;99.90;;;;;;5044512;28;20037;-81
2021/10/24 03:05:49;;;;;;;3.43;1.57;;;4.20;99.90;;;;;;5044777;28;20037;-80
2021/10/24 03:08:14;;;;;;;8.43;0.97;;;4.10;99.90;;;;;;5044461;28;20504;-80
2021/10/24 03:10:40;;;;;;;2.73;1.17;;;4.10;99.90;;;;;;5044097;28;20029;-80
2021/10/24 03:13:06;;;;;;;6.87;1.40;;;4.10;99.90;;;;;;5042734;28;20036;-82
2021/10/24 03:15:32;;;;;;;2.87;0.90;;;4.10;99.90;;;;;;5044776;28;20093;-79
2021/10/24 03:17:58;;;;;;;2.10;0.87;;;4.10;99.90;;;;;;5044235;28;20090;-82
2021/10/24 03:20:24;;;;;;;3.00;0.93;;;4.00;99.90;;;;;;5043539;28;20037;-82
2021/10/24 03:22:50;;;;;;;4.37;1.53;;;4.00;99.90;;;;;;5045056;28;20040;-81
2021/10/24 03:25:15;;;;;;;6.17;1.60;;;4.00;99.90;;;;;;5064235;28;20080;-80
2021/10/24 03:27:41;;;;;;;3.50;1.30;;;4.00;99.90;;;;;;5063540;28;20049;-80
2021/10/24 03:30:07;;;;;;;4.07;1.50;;;4.00;99.90;;;;;;5039016;28;20089;-81
2021/10/24 03:32:32;;;;;;;3.80;1.50;;;3.90;99.90;;;;;;5043615;28;20097;-81
2021/10/24 03:34:58;;;;;;;5.17;1.60;;;3.90;99.90;;;;;;5041901;28;20060;-80
2021/10/24 03:37:24;;;;;;;3.40;1.40;;;3.90;99.90;;;;;;5043674;28;20048;-81
2021/10/24 03:39:51;;;;;;;3.17;1.17;;;3.90;99.90;;;;;;5042661;28;20040;-80
2021/10/24 03:42:17;;;;;;;2.53;1.10;;;3.90;99.90;;;;;;5044210;28;20076;-81
2021/10/24 03:44:42;;;;;;;4.53;1.33;;;3.90;99.90;;;;;;5042118;28;20029;-81
2021/10/24 03:47:08;;;;;;;4.20;1.47;;;3.90;99.90;;;;;;5043080;28;20109;-81
2021/10/24 03:49:34;;;;;;;4.13;1.50;;;3.90;99.90;;;;;;5042622;28;20401;-81
2021/10/24 03:51:59;;;;;;;9.53;1.80;;;3.90;99.90;;;;;;5043918;28;20085;-80
2021/10/24 03:54:26;;;;;;;5.70;1.60;;;3.90;99.90;;;;;;5043654;28;20029;-79
2021/10/24 03:56:52;;;;;;;2.60;1.07;;;3.90;99.90;;;;;;5043915;28;20022;-79
2021/10/24 03:59:18;;;;;;;5.00;1.77;;;3.90;99.90;;;;;;5043644;28;20464;-80
2021/10/24 04:01:43;;;;;;;3.23;1.60;;;3.90;99.90;;;;;;5057501;28;20049;-82
2021/10/24 04:04:09;;;;;;;2.60;0.93;;;3.80;99.90;;;;;;5043232;28;20026;-82
2021/10/24 04:06:34;;;;;;;2.53;1.43;;;3.80;99.90;;;;;;5043435;28;20055;-82
2021/10/24 04:09:00;;;;;;;5.97;1.80;;;3.80;99.90;;;;;;5043199;28;20034;-79
2021/10/24 04:11:26;;;;;;;3.57;1.37;;;3.80;99.90;;;;;;5042610;28;20026;-82
2021/10/24 04:13:51;;;;;;;3.70;1.23;;;3.80;99.90;;;;;;5058547;28;20181;-81
2021/10/24 04:16:17;;;;;;;2.17;1.20;;;3.80;99.90;;;;;;5040214;28;20033;-81
2021/10/24 04:18:43;;;;;;;6.10;1.90;;;3.80;99.90;;;;;;5035966;28;20037;-81
2021/10/24 04:21:08;;;;;;;4.97;1.47;;;3.70;99.90;;;;;;5032762;28;20075;-80
2021/10/24 04:23:34;;;;;;;4.03;1.40;;;3.70;99.90;;;;;;5037473;28;20038;-80
2021/10/24 04:26:00;;;;;;;4.13;1.53;;;3.70;99.90;;;;;;5036177;28;20029;-81
2021/10/24 04:28:25;;;;;;;3.53;1.33;;;3.70;99.90;;;;;;5034910;28;20079;-81
2021/10/24 04:30:51;;;;;;;5.73;1.70;;;3.70;99.90;;;;;;5033941;28;20087;-80
2021/10/24 04:33:17;;;;;;;5.20;1.50;;;3.70;99.90;;;;;;5036674;28;20105;-80
2021/10/24 04:35:42;;;;;;;5.30;1.60;;;3.70;99.90;;;;;;5037775;28;20034;-80
2021/10/24 04:38:08;;;;;;;4.70;1.30;;;3.70;99.90;;;;;;5038091;28;20098;-80
2021/10/24 04:40:34;;;;;;;2.60;1.10;;;3.70;99.90;;;;;;5035485;28;20026;-80
2021/10/24 04:42:59;;;;;;;5.53;1.40;;;3.70;99.90;;;;;;5044813;28;20036;-81
2021/10/24 04:45:25;;;;;;;2.97;1.23;;;3.70;99.90;;;;;;5045177;28;20423;-81
2021/10/24 04:47:50;;;;;;;4.63;1.40;;;3.70;99.90;;;;;;5045782;28;20133;-82
2021/10/24 04:50:16;;;;;;;4.80;1.40;;;3.70;99.90;;;;;;5044980;28;20045;-80
2021/10/24 04:52:42;;;;;;;3.60;1.30;;;3.60;99.90;;;;;;5060285;28;20029;-82
2021/10/24 04:55:07;;;;;;;4.10;1.10;;;3.60;99.90;;;;;;5044500;28;20081;-81
2021/10/24 04:57:34;;;;;;;9.13;2.60;;;3.70;99.90;;;;;;5044655;28;20101;-80
2021/10/24 05:00:00;;;;;;;5.67;1.43;;;3.60;99.90;;;;;;5049060;28;20079;-80
2021/10/24 05:02:26;;;;;;;4.57;1.63;;;3.60;99.90;;;;;;5042424;28;20450;-81
2021/10/24 05:04:51;;;;;;;3.07;1.20;;;3.60;99.90;;;;;;5042820;28;20465;-80
2021/10/24 05:07:17;;;;;;;5.87;1.53;;;3.60;99.90;;;;;;5041125;28;20120;-80
2021/10/24 05:09:42;;;;;;;3.23;1.37;;;3.50;99.90;;;;;;5039124;28;20052;-80
2021/10/24 05:12:08;;;;;;;3.37;1.30;;;3.50;99.90;;;;;;5060099;28;20393;-80
2021/10/24 05:14:34;;;;;;;4.53;1.10;;;3.50;99.90;;;;;;5050911;28;20021;-81
2021/10/24 05:16:59;;;;;;;4.57;1.53;;;3.50;99.90;;;;;;5060963;28;20025;-80
2021/10/24 05:19:25;;;;;;;3.03;1.20;;;3.50;99.90;;;;;;5060345;28;20021;-80
2021/10/24 05:21:51;;;;;;;3.50;1.40;;;3.50;99.90;;;;;;5053894;28;20059;-81
2021/10/24 05:24:17;;;;;;;3.83;1.60;;;3.50;99.90;;;;;;5052709;28;20025;-80
2021/10/24 05:26:44;;;;;;;3.67;1.47;;;3.50;99.90;;;;;;5057227;28;20020;-82
2021/10/24 05:29:09;;;;;;;5.23;1.40;;;3.50;99.90;;;;;;5041910;28;20030;-82
2021/10/24 05:31:35;;;;;;;2.50;1.13;;;3.50;99.90;;;;;;5037947;28;20028;-81
2021/10/24 05:34:01;;;;;;;3.20;1.40;;;3.40;99.90;;;;;;5035992;28;20075;-82
2021/10/24 05:36:26;;;;;;;3.20;1.30;;;3.40;99.90;;;;;;5038546;28;20040;-81
2021/10/24 05:38:52;;;;;;;5.33;1.40;;;3.40;99.90;;;;;;5038013;28;20048;-82
2021/10/24 05:41:17;;;;;;;4.30;1.17;;;3.40;99.90;;;;;;5036705;28;20040;-80
2021/10/24 05:43:43;;;;;;;4.50;1.63;;;3.40;99.90;;;;;;5036199;28;20482;-80
2021/10/24 05:46:09;;;;;;;5.50;2.03;;;3.40;99.90;;;;;;5035806;28;20068;-79
2021/10/24 05:48:34;;;;;;;4.83;1.30;;;3.40;99.90;;;;;;5034701;28;20097;-80
2021/10/24 05:51:00;;;;;;;4.27;1.57;;;3.40;99.90;;;;;;5035081;28;20102;-81
2021/10/24 05:53:26;;;;;;;5.13;1.70;;;3.40;99.90;;;;;;5036478;28;20454;-81
2021/10/24 05:55:52;;;;;;;3.47;1.67;;;3.40;99.90;;;;;;5036581;28;20017;-81
2021/10/24 05:58:17;;;;;;;6.97;1.50;;;3.40;99.90;;;;;;5035970;28;20497;-81
2021/10/24 06:00:43;;;;;;;6.43;1.30;;;3.40;99.90;;;;;;5050176;28;20507;-79
2021/10/24 06:03:09;;;;;;;6.20;1.83;;;3.40;99.90;;;;;;5035409;28;20040;-80
2021/10/24 06:05:35;;;;;;;3.37;1.30;;;3.40;99.90;;;;;;5050135;28;20607;-80
2021/10/24 06:08:02;;;;;;;4.90;1.77;;;3.40;99.90;;;;;;5035654;28;20025;-80
2021/10/24 06:10:33;;;;;;;4.23;1.50;;;3.40;99.90;;;;;;5034245;28;20106;-80
2021/10/24 06:13:00;;;;;;;3.70;1.40;;;3.40;99.90;;;;;;5050948;28;20040;-80
2021/10/24 06:15:26;;;;;;;4.03;1.40;;;3.40;99.90;;;;;;5039924;28;20057;-81
2021/10/24 06:17:52;;;;;;;3.47;1.40;;;3.40;99.90;;;;;;5050349;28;20024;-80
2021/10/24 06:20:20;;;;;;;5.33;1.43;;;3.40;99.90;;;;;;5057680;28;20028;-81
2021/10/24 06:22:46;;;;;;;4.03;1.33;;;3.50;99.90;;;;;;5054368;28;20396;-80
2021/10/24 06:25:13;;;;;;;6.77;1.90;;;3.50;99.90;;;;;;5043314;28;20035;-80
2021/10/24 06:27:41;;;;;;;4.93;1.33;;;3.50;99.90;;;;;;5058923;28;20028;-81
2021/10/24 06:30:12;;;;;;;5.97;1.50;;;3.50;99.90;;;;;;5052582;28;20370;-81
2021/10/24 06:32:38;;;;;;;3.77;1.60;;;3.60;99.90;;;;;;5056216;28;20608;-81
2021/10/24 06:35:04;;;;;;;3.53;1.30;;;3.60;99.90;;;;;;5057129;28;20039;-80
2021/10/24 06:37:40;;;;;;;5.20;1.70;;;3.60;99.90;;;;;;5080252;23;20477;-80
2021/10/24 06:40:08;;;;;;;4.80;1.73;;;3.70;99.90;;;;;;5064729;28;20025;-80
2021/10/24 06:42:35;;;;;;;9.57;1.87;;;3.70;99.90;;;;;;5068582;28;20265;-80
2021/10/24 06:45:00;;;;;;;4.70;1.63;;;3.70;99.90;;;;;;5072603;28;20055;-80
2021/10/24 06:47:26;;;;;;;4.07;1.77;;;3.80;99.90;;;;;;5071822;28;20024;-80
2021/10/24 06:49:52;;;;;;;7.37;1.60;;;3.80;99.90;;;;;;5049244;28;20038;-80
2021/10/24 06:52:17;;;;;;;5.23;2.00;;;3.90;99.90;;;;;;5051770;28;20032;-80
2021/10/24 06:54:43;;;;;;;3.63;1.57;;;3.90;99.90;;;;;;5051612;28;20167;-81
2021/10/24 06:57:08;;;;;;;4.70;1.77;;;4.00;99.90;;;;;;5049320;28;20030;-80
2021/10/24 06:59:34;;;;;;;3.37;1.63;;;4.10;99.90;;;;;;5049033;28;20008;-81
2021/10/24 07:02:00;;;;;;;3.93;1.73;;;4.10;99.90;;;;;;5049779;28;20025;-81
2021/10/24 07:04:26;;;;;;;3.70;1.57;;;4.20;99.90;;;;;;5052286;28;20017;-81
2021/10/24 07:06:51;;;;;;;6.63;2.20;;;4.20;99.90;;;;;;5046408;28;20029;-81
2021/10/24 07:09:17;;;;;;;6.90;1.67;;;4.40;99.90;;;;;;5052018;28;20458;-80
2021/10/24 07:11:42;;;;;;;5.90;1.77;;;4.50;99.90;;;;;;5049379;28;20021;-80
2021/10/24 07:14:08;;;;;;;7.63;2.40;;;4.50;99.90;;;;;;5048285;28;20028;-81
2021/10/24 07:16:34;;;;;;;6.53;2.40;;;4.60;99.90;;;;;;5049075;28;20025;-80
2021/10/24 07:18:59;;;;;;;7.50;2.07;;;4.60;99.90;;;;;;5049500;28;20021;-81
2021/10/24 07:21:26;;;;;;;4.37;1.70;;;4.70;99.90;;;;;;5042440;28;20033;-81
2021/10/24 07:23:52;;;;;;;4.70;2.13;;;4.80;99.90;;;;;;5044812;28;20028;-80
2021/10/24 07:26:18;;;;;;;4.43;1.87;;;4.90;99.90;;;;;;5041937;28;20100;-79
2021/10/24 07:28:44;;;;;;;4.00;1.90;;;5.00;99.90;;;;;;5049608;28;20057;-80
2021/10/24 07:31:09;;;;;;;4.10;2.00;;;5.00;99.90;;;;;;5049859;28;20036;-80
2021/10/24 07:33:35;;;;;;;4.23;1.70;;;5.10;99.90;;;;;;5051535;28;20026;-80
2021/10/24 07:36:00;;;;;;;8.80;2.30;;;5.20;99.90;;;;;;5050549;28;20029;-80
2021/10/24 07:38:26;;;;;;;5.27;2.27;;;5.30;99.90;;;;;;5050347;28;20060;-79
2021/10/24 07:40:52;;;;;;;7.20;2.00;;;5.40;99.90;;;;;;5050038;28;20025;-80
2021/10/24 07:43:19;;;;;;;5.40;2.17;;;5.40;99.90;;;;;;5046320;28;20100;-80
2021/10/24 07:45:46;;;;;;;7.70;2.50;;;5.50;99.90;;;;;;5038621;28;20017;-80
2021/10/24 07:48:12;;;;;;;6.27;2.20;;;5.60;99.90;;;;;;5048057;28;20025;-79
2021/10/24 07:50:38;;;;;;;3.90;1.77;;;5.60;99.90;;;;;;5047906;28;20033;-80
2021/10/24 07:53:04;;;;;;;5.10;2.00;;;5.70;99.90;;;;;;5048765;28;20106;-80
2021/10/24 07:55:30;;;;;;;3.17;1.50;;;5.70;99.90;;;;;;5050565;28;20033;-80
2021/10/24 07:57:56;;;;;;;4.67;1.83;;;5.70;99.90;;;;;;5042320;28;20037;-79
2021/10/24 08:00:22;;;;;;;3.87;1.70;;;5.80;99.90;;;;;;5048410;28;20039;-80
2021/10/24 08:02:48;;;;;;;3.80;1.30;;;5.70;99.90;;;;;;5051832;28;20025;-79
2021/10/24 08:05:14;;;;;;;4.30;1.50;;;5.70;99.90;;;;;;5041571;28;20077;-80
2021/10/24 08:07:41;;;;;;;5.67;1.73;;;5.80;99.90;;;;;;5048188;28;20037;-77
2021/10/24 08:10:08;;;;;;;5.00;2.10;;;5.80;99.90;;;;;;5049429;28;20045;-79
2021/10/24 08:12:35;;;;;;;4.57;1.80;;;5.90;99.90;;;;;;5046973;28;20018;-79
2021/10/24 08:15:00;;;;;;;7.67;1.90;;;6.00;99.90;;;;;;5039591;28;20076;-79
2021/10/24 08:17:26;;;;;;;4.27;1.93;;;6.00;99.90;;;;;;5036591;28;20387;-78
2021/10/24 08:19:52;;;;;;;3.00;1.43;;;6.00;99.90;;;;;;5033036;28;20034;-80
2021/10/24 08:22:19;;;;;;;4.13;1.80;;;6.10;99.90;;;;;;5032510;28;20033;-79
2021/10/24 08:24:47;;;;;;;4.00;1.90;;;6.10;99.90;;;;;;5046923;28;20045;-79
2021/10/24 08:27:13;;;;;;;4.63;1.80;;;6.20;99.90;;;;;;5047037;28;20089;-79
2021/10/24 08:29:40;;;;;;;4.30;2.00;;;6.30;99.90;;;;;;5040717;28;20029;-79
2021/10/24 08:32:09;;;;;;;7.03;2.30;;;6.40;99.90;;;;;;5040701;28;20061;-78
2021/10/24 08:34:38;;;;;;;4.60;1.97;;;6.40;99.90;;;;;;5048834;28;20048;-79
2021/10/24 08:37:05;;;;;;;6.07;2.20;;;6.50;99.90;;;;;;5047810;28;20113;-79
2021/10/24 08:39:31;;;;;;;3.70;1.67;;;6.60;99.90;;;;;;5046877;28;20037;-79
2021/10/24 08:41:57;;;;;;;5.40;2.00;;;6.70;99.90;;;;;;5046512;28;20124;-79
2021/10/24 08:44:24;;;;;;;5.53;2.23;;;6.80;99.90;;;;;;5041606;28;20255;-79
2021/10/24 08:46:51;;;;;;;6.70;1.90;;;6.90;99.90;;;;;;5044012;28;20031;-81
2021/10/24 08:49:17;;;;;;;4.97;1.70;;;7.00;99.90;;;;;;5035823;28;20029;-79
2021/10/24 08:51:42;;;;;;;3.47;1.70;;;7.10;99.90;;;;;;5042035;28;20121;-79
2021/10/24 08:54:10;;;;;;;5.67;1.83;;;7.10;99.90;;;;;;5044606;28;20021;-80
2021/10/24 08:56:36;;;;;;;5.07;2.00;;;7.20;99.90;;;;;;5037275;28;20022;-81
2021/10/24 08:59:03;;;;;;;4.80;1.83;;;7.30;99.90;;;;;;5043883;28;20032;-79
2021/10/24 09:01:29;;;;;;;5.87;1.77;;;7.40;99.90;;;;;;5043800;28;20029;-79
2021/10/24 09:04:08;;;;;;;6.70;1.93;;;7.50;99.90;;;;;;5040537;28;20063;-80
2021/10/24 09:06:59;;;;;;;6.13;2.13;;;7.70;99.90;;;;;;5032673;28;20264;-79
2021/10/24 09:09:29;;;;;;;4.83;1.73;;;7.70;99.90;;;;;;5056796;28;20049;-79
2021/10/24 09:12:21;;;;;;;5.50;1.80;;;7.80;99.90;;;;;;5048058;28;20058;-78
2021/10/24 09:14:57;;;;;;;3.45;1.60;;;7.90;99.90;;;;;;5037286;28;20064;-79
2021/10/24 09:17:24;;;;;;;4.03;1.80;;;8.00;99.90;;;;;;5043506;28;20057;-79
2021/10/24 09:19:59;;;;;;;5.38;2.00;;;8.00;99.90;;;;;;5036533;28;20401;-79
2021/10/24 09:22:26;;;;;;;4.73;1.93;;;8.10;99.90;;;;;;5033229;28;20029;-79
2021/10/24 09:25:15;;;;;;;5.07;1.85;;;8.10;99.90;;;;;;5022734;28;20033;-79
2021/10/24 09:27:47;;;;;;;4.95;2.03;;;8.10;99.90;;;;;;5033040;28;20397;-79
2021/10/24 09:30:21;;;;;;;5.13;1.70;;;8.10;99.90;;;;;;5024793;28;20036;-79
2021/10/24 09:32:52;;;;;;;4.97;2.13;;;8.20;99.90;;;;;;5013655;28;20034;-79
2021/10/24 09:35:20;;;;;;;4.57;1.63;;;8.20;99.90;;;;;;5014558;28;20048;-80
2021/10/24 09:37:47;;;;;;;4.63;2.00;;;8.30;99.90;;;;;;5013834;28;20018;-80
2021/10/24 09:40:14;;;;;;;4.57;2.10;;;8.40;99.90;;;;;;5030881;28;20557;-79
2021/10/24 09:42:40;;;;;;;3.95;1.90;;;8.40;99.90;;;;;;5032969;28;20049;-79
2021/10/24 09:45:14;;;;;;;5.65;1.80;;;8.60;99.90;;;;;;5032058;28;20049;-79
2021/10/24 09:47:42;;;;;;;4.28;1.63;;;8.50;99.90;;;;;;5032653;28;20473;-79
2021/10/24 09:50:30;;;;;;;3.95;1.80;;;8.60;99.90;;;;;;5030654;28;20045;-79
2021/10/24 09:53:16;;;;;;;3.55;1.50;;;8.70;99.90;;;;;;5034982;28;20456;-80
2021/10/24 09:55:45;;;;;;;4.07;1.75;;;8.80;99.90;;;;;;5036777;28;20397;-79
2021/10/24 09:58:12;;;;;;;3.90;1.90;;;8.80;99.90;;;;;;5035623;28;20029;-80
2021/10/24 10:00:39;;;;;;;2.75;1.50;;;8.80;99.90;;;;;;5040144;28;20048;-79
2021/10/24 10:03:08;;;;;;;2.85;1.50;;;8.90;99.90;;;;;;5035981;28;20029;-79
2021/10/24 10:05:36;;;;;;;3.50;1.30;;;9.10;99.90;;;;;;5049509;28;20040;-79
2021/10/24 10:08:02;;;;;;;3.30;1.20;;;9.20;99.90;;;;;;5034366;28;20053;-79
2021/10/24 10:10:30;;;;;;;3.10;1.40;;;9.30;99.90;;;;;;5035859;28;20029;-79
2021/10/24 10:13:00;;;;;;;5.57;1.60;;;9.30;99.90;;;;;;5051145;28;20057;-79
2021/10/24 10:15:31;;;;;;;2.85;1.60;;;9.40;99.90;;;;;;5035764;28;20021;-79
2021/10/24 10:18:00;;;;;;;3.72;1.63;;;9.40;99.90;;;;;;5036079;28;20021;-79
2021/10/24 10:20:29;;;;;;;3.33;1.38;;;9.50;99.90;;;;;;5033385;28;20025;-79
2021/10/24 10:23:05;;;;;;;3.97;1.60;;;9.50;99.90;;;;;;5032805;28;20036;-80
2021/10/24 10:25:32;;;;;;;3.58;1.65;;;9.60;99.90;;;;;;5032653;28;20176;-79
2021/10/24 10:27:58;;;;;;;3.28;1.65;;;9.60;99.90;;;;;;5028575;28;20105;-79
2021/10/24 10:30:34;;;;;;;4.43;1.30;;;9.60;99.90;;;;;;5044300;28;20026;-80
2021/10/24 10:33:01;;;;;;;3.78;1.60;;;9.70;99.90;;;;;;5026890;28;20041;-80
2021/10/24 10:35:27;;;;;;;4.22;1.70;;;9.70;99.90;;;;;;5030182;28;20037;-80
2021/10/24 10:37:55;;;;;;;4.80;1.67;;;9.70;99.90;;;;;;5029764;28;20064;-79
2021/10/24 10:40:33;;;;;;;3.50;1.48;;;9.80;99.90;;;;;;5027086;28;20078;-79
2021/10/24 10:43:22;;;;;;;2.70;1.15;;;9.90;99.90;;;;;;5013788;28;20440;-79
2021/10/24 10:45:52;;;;;;;5.68;1.52;;;10.00;99.90;;;;;;5012491;28;20046;-79
2021/10/24 10:48:21;;;;;;;4.20;1.83;;;10.10;99.90;;;;;;5019948;28;20380;-80
2021/10/24 10:50:52;;;;;;;3.72;1.75;;;10.20;99.90;;;;;;5034704;28;20479;-79
2021/10/24 10:53:46;;;;;;;4.65;1.67;;;10.20;99.90;;;;;;5035285;28;20053;-80
2021/10/24 10:56:12;;;;;;;4.18;1.75;;;10.40;99.90;;;;;;5035503;28;20033;-80
2021/10/24 10:58:43;;;;;;;5.07;1.90;;;10.40;99.90;;;;;;5029650;28;20117;-80
2021/10/24 11:01:28;;;;;;;2.97;1.40;;;10.40;99.90;;;;;;5028704;28;20088;-80
2021/10/24 11:03:59;;;;;;;3.10;1.63;;;10.50;99.90;;;;;;5030326;28;20080;-80
2021/10/24 11:06:25;;;;;;;3.50;1.67;;;10.60;99.90;;;;;;5038819;28;20026;-80
2021/10/24 11:09:10;;;;;;;2.30;1.02;;;10.60;99.90;;;;;;5050291;28;20040;-80
2021/10/24 11:11:36;;;;;;;3.15;1.25;;;10.70;99.90;;;;;;5049993;28;20525;-80
2021/10/24 11:14:22;;;;;;;4.70;1.60;;;10.80;99.90;;;;;;5047425;28;20038;-79
2021/10/24 11:16:52;;;;;;;3.05;1.60;;;10.80;99.90;;;;;;5043845;28;20026;-80
2021/10/24 11:19:31;;;;;;;2.90;1.40;;;10.90;99.90;;;;;;5051037;28;20454;-80
2021/10/24 11:21:58;;;;;;;3.00;1.75;;;11.00;99.90;;;;;;5043968;28;20026;-80
2021/10/24 11:24:25;;;;;;;4.03;1.40;;;10.80;99.90;;;;;;5044837;28;20021;-79
2021/10/24 11:26:57;;;;;;;3.28;1.30;;;11.00;99.90;;;;;;5049680;28;20033;-80
2021/10/24 11:29:23;;;;;;;2.83;1.20;;;11.00;99.90;;;;;;5044718;28;20030;-79
2021/10/24 11:32:08;;;;;;;3.08;1.38;;;10.90;99.90;;;;;;5028323;28;20052;-80
2021/10/24 11:34:34;;;;;;;3.83;1.52;;;10.90;99.90;;;;;;5030174;28;20076;-80
2021/10/24 11:36:59;;;;;;;3.33;1.38;;;11.00;99.90;;;;;;5035024;28;20025;-80
2021/10/24 11:39:25;;;;;;;3.88;1.40;;;11.10;99.90;;;;;;5050611;28;20082;-79
2021/10/24 11:42:09;;;;;;;3.45;1.60;;;11.20;99.90;;;;;;5050650;28;20077;-80
2021/10/24 11:44:35;;;;;;;2.78;1.20;;;11.30;99.90;;;;;;5050774;28;20037;-80
2021/10/24 11:47:11;;;;;;;2.95;1.23;;;11.40;99.90;;;;;;5041614;28;20083;-80
2021/10/24 11:49:46;;;;;;;3.28;1.40;;;11.50;99.90;;;;;;5048666;28;20029;-79
2021/10/24 11:52:29;;;;;;;4.75;1.63;;;11.60;99.90;;;;;;5050526;28;20025;-80
2021/10/24 11:55:12;;;;;;;3.38;1.63;;;11.70;99.90;;;;;;5065622;28;20018;-80
2021/10/24 11:57:59;;;;;;;2.50;0.90;;;11.70;99.90;;;;;;5030985;28;20022;-80
2021/10/24 12:03:12;;;;;;;4.82;1.50;;;11.80;99.90;;;;;;5047163;28;20319;-79
2021/10/24 12:05:38;;;;;;;3.17;1.40;;;11.90;99.90;;;;;;5050397;28;20064;-80
2021/10/24 12:08:04;;;;;;;3.03;1.45;;;11.90;99.90;;;;;;5045701;28;20030;-83
2021/10/24 12:10:50;;;;;;;3.40;1.40;;;11.90;99.90;;;;;;5044917;28;20029;-83
2021/10/24 12:13:34;;;;;;;2.63;1.13;;;12.00;99.90;;;;;;5029927;28;20078;-82
2021/10/24 12:16:01;;;;;;;5.10;1.17;;;12.10;99.90;;;;;;5037671;28;20022;-83
2021/10/24 12:18:34;;;;;;;3.10;1.20;;;12.20;99.90;;;;;;5050409;28;20593;-83
2021/10/24 12:21:02;;;;;;;2.65;1.20;;;12.40;99.90;;;;;;5048918;28;20025;-83
2021/10/24 12:23:34;;;;;;;2.53;1.25;;;12.40;99.90;;;;;;5046832;28;20033;-83
2021/10/24 12:26:04;;;;;;;;;;;12.50;99.90;;;;;;5049738;28;20091;-83
2021/10/24 12:28:34;;;;;;;3.50;1.23;;;12.60;99.90;;;;;;5050250;28;19904;-83
2021/10/24 12:31:01;;;;;;;2.63;1.05;;;12.60;99.90;;;;;;5056901;28;20026;-83
2021/10/24 12:33:34;;;;;;;2.35;1.00;;;12.70;99.90;;;;;;5029711;28;20474;-84
2021/10/24 12:36:05;;;;;;;2.88;1.35;;;12.80;99.90;;;;;;5028566;28;20057;-84
2021/10/24 12:38:58;;;;;;;3.15;1.02;;;12.80;99.90;;;;;;5055205;23;20041;-84
2021/10/24 12:41:44;;;;;;;2.63;1.05;;;13.00;99.90;;;;;;5053126;28;20040;-84
2021/10/24 12:44:22;;;;;;;3.97;1.30;;;13.10;99.90;;;;;;5053226;28;20033;-84
2021/10/24 12:46:47;;;;;;;2.08;1.13;;;13.20;99.90;;;;;;5061415;28;20028;-83
2021/10/24 12:49:13;;;;;;;1.65;0.90;;;13.30;99.90;;;;;;5041471;28;20034;-83
2021/10/24 12:51:40;;;;;;;2.90;1.10;;;13.40;99.90;;;;;;5040052;28;20070;-82
2021/10/24 12:54:09;;;;;;;2.45;0.90;;;13.60;99.90;;;;;;5052392;28;20091;-82
2021/10/24 12:56:37;;;;;;;2.65;1.05;;;13.70;99.90;;;;;;5044357;28;20108;-84
2021/10/24 12:59:03;;;;;;;2.92;1.20;;;13.80;99.90;;;;;;5038411;28;20033;-84
2021/10/24 13:01:34;;;;;;;2.72;1.33;;;13.80;99.90;;;;;;5036687;28;20061;-84